Occum, Connecticut
Current Conditions -  °F | °C
As of 3:52 AM on Monday 20 Oct 2014 (Local Time) from KIJD Reporting Station
Clear Clear  
Wind Chill: 32°   Ceiling: Unl
Heat Index: 32°   Visibility: 10mi
Dew Point: 29°   Wind: 0mph
Humidity: 88%   Direction: NA
Pressure: 30.03"   Gusts: NA
Location:  41.5523°N, 72.0921°W
Report Text: KIJD 200752Z AUTO 00000KT 10SM CLR 00/M02 A3003 RMK AO2 SLP171 T00001017
Loading
Personal Weather Stations






























Interactive Weather Map
Tropical Storm Tracking
New forecast layout! Learn more

10-Day Weather Forecast

Advertisements
Track Severe Weather on mobile